Time;durP1;ratioP1;P1;durP2;ratioP2;P2;SDS_P1;SDS_P2;PMS_P1;PMS_P2;Temp;Humidity;BMP_temperature;BMP_pressure;BME280_temperature;BME280_humidity;BME280_pressure;Samples;Min_cycle;Max_cycle;Signal;HPM_P1;HPM_P2
2024/01/10 00:00:38;;;;;;;;;;;-4.00;99.90;;;;;;4985832;28;20195;-74
2024/01/10 00:03:04;;;;;;;;;;;-4.00;99.90;;;;;;4980479;28;20628;-74
2024/01/10 00:05:30;;;;;;;;;;;-4.00;99.90;;;;;;5009767;28;20960;-73
2024/01/10 00:07:56;;;;;;;;;;;-4.00;99.90;;;;;;4976045;28;19928;-74
2024/01/10 00:10:22;;;;;;;;;;;-4.00;99.90;;;;;;4992248;28;20611;-73
2024/01/10 00:12:48;;;;;;;;;;;-4.00;99.90;;;;;;4973259;28;19938;-74
2024/01/10 00:15:14;;;;;;;;;;;-4.00;99.90;;;;;;4999361;28;19924;-73
2024/01/10 00:17:40;;;;;;;;;;;-4.00;99.90;;;;;;4961027;28;20053;-73
2024/01/10 00:20:07;;;;;;;;;;;-4.00;99.90;;;;;;4995735;28;20037;-74
2024/01/10 00:22:33;;;;;;;;;;;-4.00;99.90;;;;;;4956438;28;19934;-73
2024/01/10 00:24:59;;;;;;;;;;;-4.00;99.90;;;;;;4980291;28;19925;-73
2024/01/10 00:27:24;;;;;;;;;;;-4.10;99.90;;;;;;4945691;28;19935;-73
2024/01/10 00:29:51;;;;;;;;;;;-4.10;99.90;;;;;;5011292;28;19924;-73
2024/01/10 00:32:17;;;;;;;;;;;-4.10;99.90;;;;;;4960341;28;19933;-73
2024/01/10 00:34:43;;;;;;;;;;;-4.10;99.90;;;;;;4995601;28;20308;-73
2024/01/10 00:37:09;;;;;;;;;;;-4.10;99.90;;;;;;4988280;28;19929;-72
2024/01/10 00:39:35;;;;;;;;;;;-4.10;99.90;;;;;;4988324;28;19967;-74
2024/01/10 00:42:01;;;;;;;;;;;-4.10;99.90;;;;;;4981588;28;19924;-74
2024/01/10 00:44:27;;;;;;;;;;;-4.10;99.90;;;;;;4986208;28;20084;-73
2024/01/10 00:46:53;;;;;;;;;;;-4.10;99.90;;;;;;4994364;28;19929;-74
2024/01/10 00:49:19;;;;;;;;;;;-4.20;99.90;;;;;;4970662;28;20150;-74
2024/01/10 00:51:44;;;;;;;;;;;-4.20;99.90;;;;;;5016292;28;20211;-74
2024/01/10 00:54:10;;;;;;;;;;;-4.20;99.90;;;;;;4952583;28;19924;-74
2024/01/10 00:56:36;;;;;;;;;;;-4.20;99.90;;;;;;4984067;28;19936;-74
2024/01/10 00:59:02;;;;;;;;;;;-4.20;99.90;;;;;;4972028;28;19925;-74
2024/01/10 01:01:28;;;;;;;;;;;-4.30;99.90;;;;;;4964465;28;19925;-76
2024/01/10 01:03:54;;;;;;;;;;;-4.20;99.90;;;;;;4968179;28;21148;-73
2024/01/10 01:06:20;;;;;;;;;;;-4.30;99.90;;;;;;4999532;28;19936;-74
2024/01/10 01:08:46;;;;;;;;;;;-4.30;99.90;;;;;;4985709;28;19925;-74
2024/01/10 01:11:14;;;;;;;;;;;-4.30;99.90;;;;;;5017199;28;20031;-74
2024/01/10 01:13:40;;;;;;;;;;;-4.30;99.90;;;;;;4957938;28;19976;-74
2024/01/10 01:16:06;;;;;;;;;;;-4.30;99.90;;;;;;4970934;28;20510;-73
2024/01/10 01:18:32;;;;;;;;;;;-4.30;99.90;;;;;;4973266;28;19928;-73
2024/01/10 01:20:58;;;;;;;;;;;-4.40;99.90;;;;;;4979744;28;19925;-73
2024/01/10 01:23:24;;;;;;;;;;;-4.40;99.90;;;;;;4969099;28;19926;-74
2024/01/10 01:25:50;;;;;;;;;;;-4.40;99.90;;;;;;5011782;28;20498;-74
2024/01/10 01:28:16;;;;;;;;;;;-4.40;99.90;;;;;;4945508;28;19929;-74
2024/01/10 01:30:42;;;;;;;;;;;-4.40;99.90;;;;;;4992372;28;20013;-75
2024/01/10 01:33:08;;;;;;;;;;;-4.50;99.90;;;;;;4975356;28;19935;-75
2024/01/10 01:35:34;;;;;;;;;;;-4.40;99.90;;;;;;4989002;28;20504;-75
2024/01/10 01:38:00;;;;;;;;;;;-4.50;99.90;;;;;;4953752;28;19929;-75
2024/01/10 01:40:26;;;;;;;;;;;-4.50;99.90;;;;;;5000978;28;19924;-74
2024/01/10 01:42:53;;;;;;;;;;;-4.50;99.90;;;;;;4975642;28;19928;-75
2024/01/10 01:45:19;;;;;;;;;;;-4.50;99.90;;;;;;4993717;28;19955;-73
2024/01/10 01:47:45;;;;;;;;;;;-4.60;99.90;;;;;;4954179;28;20379;-74
2024/01/10 01:50:11;;;;;;;;;;;-4.60;99.90;;;;;;4993972;28;19925;-75
2024/01/10 01:52:37;;;;;;;;;;;-4.50;99.90;;;;;;4973204;28;20048;-75
2024/01/10 01:55:04;;;;;;;;;;;-4.60;99.90;;;;;;4988345;28;19924;-75
2024/01/10 01:57:30;;;;;;;;;;;-4.60;99.90;;;;;;4974477;28;20519;-76
2024/01/10 01:59:57;;;;;;;;;;;-4.60;99.90;;;;;;4999964;28;20271;-76
2024/01/10 02:02:23;;;;;;;;;;;-4.60;99.90;;;;;;4971652;28;19925;-75
2024/01/10 02:04:49;;;;;;;;;;;-4.60;99.90;;;;;;4980270;28;19936;-75
2024/01/10 02:07:15;;;;;;;;;;;-4.60;99.90;;;;;;4948272;28;20007;-75
2024/01/10 02:09:41;;;;;;;;;;;-4.50;99.90;;;;;;4991872;28;19924;-75
2024/01/10 02:12:07;;;;;;;;;;;-4.60;99.90;;;;;;5009425;28;20892;-74
2024/01/10 02:14:34;;;;;;;;;;;-4.60;99.90;;;;;;4992935;28;19973;-74
2024/01/10 02:17:00;;;;;;;;;;;-4.60;99.90;;;;;;5001977;28;19935;-74
2024/01/10 02:19:27;;;;;;;;;;;-4.60;99.90;;;;;;4980639;28;19928;-74
2024/01/10 02:21:53;;;;;;;;;;;-4.60;99.90;;;;;;4977055;28;19944;-75
2024/01/10 02:24:19;;;;;;;;;;;-4.60;99.90;;;;;;4980098;28;19934;-76
2024/01/10 02:26:45;;;;;;;;;;;-4.60;99.90;;;;;;4964448;28;19940;-75
2024/01/10 02:29:11;;;;;;;;;;;-4.60;99.90;;;;;;4983248;28;19931;-75
2024/01/10 02:31:37;;;;;;;;;;;-4.50;99.90;;;;;;4978784;28;19925;-75
2024/01/10 02:34:03;;;;;;;;;;;-4.60;99.90;;;;;;4978728;28;19951;-75
2024/01/10 02:36:29;;;;;;;;;;;-4.60;99.90;;;;;;4981182;28;19936;-75
2024/01/10 02:38:55;;;;;;;;;;;-4.60;99.90;;;;;;4974624;28;19940;-75
2024/01/10 02:41:21;;;;;;;;;;;-4.60;99.90;;;;;;5015805;28;19933;-75
2024/01/10 02:43:47;;;;;;;;;;;-4.60;99.90;;;;;;4982890;28;19924;-75
2024/01/10 02:46:13;;;;;;;;;;;-4.60;99.90;;;;;;4989681;28;19935;-75
2024/01/10 02:48:39;;;;;;;;;;;-4.60;99.90;;;;;;4973138;28;21075;-74
2024/01/10 02:51:05;;;;;;;;;;;-4.60;99.90;;;;;;5013584;28;19995;-75
2024/01/10 02:53:31;;;;;;;;;;;-4.60;99.90;;;;;;4971205;28;20028;-75
2024/01/10 02:55:57;;;;;;;;;;;-4.60;99.90;;;;;;4994840;28;19924;-76
2024/01/10 02:58:25;;;;;;;;;;;-4.60;99.90;;;;;;4982963;28;19925;-76
2024/01/10 03:00:51;;;;;;;;;;;-4.70;99.90;;;;;;4939593;28;20987;-76
2024/01/10 03:03:17;;;;;;;;;;;-4.70;99.90;;;;;;5001199;28;19932;-76
2024/01/10 03:05:43;;;;;;;;;;;-4.70;99.90;;;;;;4980787;28;19960;-76
2024/01/10 03:08:09;;;;;;;;;;;-4.70;99.90;;;;;;4982828;28;19924;-76
2024/01/10 03:10:34;;;;;;;;;;;-4.70;99.90;;;;;;4968853;28;19929;-77
2024/01/10 03:13:00;;;;;;;;;;;-4.70;99.90;;;;;;5014591;28;19940;-76
2024/01/10 03:15:26;;;;;;;;;;;-4.70;99.90;;;;;;4982358;28;19952;-76
2024/01/10 03:17:52;;;;;;;;;;;-4.70;99.90;;;;;;4997441;28;19925;-75
2024/01/10 03:20:18;;;;;;;;;;;-4.70;99.90;;;;;;4983143;28;19932;-75
2024/01/10 03:22:44;;;;;;;;;;;-4.80;99.90;;;;;;5017630;28;19925;-76
2024/01/10 03:25:10;;;;;;;;;;;-4.80;99.90;;;;;;4958138;28;19929;-75
2024/01/10 03:27:36;;;;;;;;;;;-4.80;99.90;;;;;;4968430;28;19924;-76
2024/01/10 03:30:02;;;;;;;;;;;-4.80;99.90;;;;;;4972355;28;19925;-76
2024/01/10 03:32:28;;;;;;;;;;;-4.80;99.90;;;;;;4999546;28;19936;-76
2024/01/10 03:34:54;;;;;;;;;;;-4.80;99.90;;;;;;4962371;28;20343;-77
2024/01/10 03:37:20;;;;;;;;;;;-4.80;99.90;;;;;;4989665;28;19929;-77
2024/01/10 03:39:46;;;;;;;;;;;-4.90;99.90;;;;;;4981391;28;20280;-77
2024/01/10 03:42:12;;;;;;;;;;;-4.90;99.90;;;;;;5005809;28;19932;-77
2024/01/10 03:44:38;;;;;;;;;;;-4.90;99.90;;;;;;4981332;28;19953;-77
2024/01/10 03:47:04;;;;;;;;;;;-4.80;99.90;;;;;;4994001;28;20247;-77
2024/01/10 03:49:29;;;;;;;;;;;-4.80;99.90;;;;;;4961999;28;20608;-77
2024/01/10 03:51:55;;;;;;;;;;;-4.80;99.90;;;;;;4990295;28;19925;-77
2024/01/10 03:54:21;;;;;;;;;;;-4.80;99.90;;;;;;4971407;28;19928;-76
2024/01/10 03:56:47;;;;;;;;;;;-4.90;99.90;;;;;;5014992;28;19925;-76
2024/01/10 03:59:13;;;;;;;;;;;-4.90;99.90;;;;;;4977120;28;19925;-76
2024/01/10 04:01:39;;;;;;;;;;;-4.90;99.90;;;;;;4990949;28;20487;-76
2024/01/10 04:04:05;;;;;;;;;;;-4.90;99.90;;;;;;4960992;28;19971;-77
2024/01/10 04:06:31;;;;;;;;;;;-4.90;99.90;;;;;;4994086;28;19963;-76
2024/01/10 04:08:57;;;;;;;;;;;-5.00;99.90;;;;;;4962548;28;20510;-75
2024/01/10 04:11:23;;;;;;;;;;;-5.00;99.90;;;;;;4999633;28;19931;-76
2024/01/10 04:13:49;;;;;;;;;;;-5.00;99.90;;;;;;4963859;28;19981;-76
2024/01/10 04:16:14;;;;;;;;;;;-5.10;99.90;;;;;;5017995;28;19933;-76
2024/01/10 04:18:40;;;;;;;;;;;-5.10;99.90;;;;;;4983356;28;20124;-76
2024/01/10 04:21:07;;;;;;;;;;;-5.10;99.90;;;;;;5015916;28;19924;-75
2024/01/10 04:23:33;;;;;;;;;;;-5.10;99.90;;;;;;4979392;28;19976;-76
2024/01/10 04:26:01;;;;;;;;;;;-5.20;99.90;;;;;;4976390;28;19928;-75
2024/01/10 04:28:27;;;;;;;;;;;-5.20;99.90;;;;;;4987621;28;19925;-77
2024/01/10 04:30:53;;;;;;;;;;;-5.20;99.90;;;;;;4998386;28;20483;-76
2024/01/10 04:33:19;;;;;;;;;;;-5.20;99.90;;;;;;4983312;28;19940;-75
2024/01/10 04:35:44;;;;;;;;;;;-5.20;99.90;;;;;;4968923;28;19925;-77
2024/01/10 04:38:10;;;;;;;;;;;-5.20;99.90;;;;;;4972983;28;19936;-77
2024/01/10 04:40:36;;;;;;;;;;;-5.20;99.90;;;;;;4972006;28;20256;-75
2024/01/10 04:43:02;;;;;;;;;;;-5.20;99.90;;;;;;4982803;28;20976;-77
2024/01/10 04:45:28;;;;;;;;;;;-5.20;99.90;;;;;;4969244;28;20091;-77
2024/01/10 04:47:54;;;;;;;;;;;-5.20;99.90;;;;;;5016835;28;19929;-77
2024/01/10 04:50:20;;;;;;;;;;;-5.20;99.90;;;;;;4975296;28;19951;-77
2024/01/10 04:52:46;;;;;;;;;;;-5.20;99.90;;;;;;4991739;28;19929;-77
2024/01/10 04:55:12;;;;;;;;;;;-5.20;99.90;;;;;;4977720;28;20602;-76
2024/01/10 04:57:38;;;;;;;;;;;-5.20;99.90;;;;;;5003569;28;19925;-77
2024/01/10 05:00:04;;;;;;;;;;;-5.20;99.90;;;;;;4986425;28;19964;-75
2024/01/10 05:02:30;;;;;;;;;;;-5.20;99.90;;;;;;5016625;28;19929;-75
2024/01/10 05:04:56;;;;;;;;;;;-5.20;99.90;;;;;;4985869;28;19956;-77
2024/01/10 05:07:22;;;;;;;;;;;-5.20;99.90;;;;;;5000770;28;20513;-77
2024/01/10 05:09:48;;;;;;;;;;;-5.20;99.90;;;;;;4976553;28;19955;-77
2024/01/10 05:12:14;;;;;;;;;;;-5.20;99.90;;;;;;4984822;28;19932;-77
2024/01/10 05:14:40;;;;;;;;;;;-5.20;99.90;;;;;;4973634;28;19996;-77
2024/01/10 05:17:06;;;;;;;;;;;-5.30;99.90;;;;;;4993234;28;19925;-77
2024/01/10 05:19:32;;;;;;;;;;;-5.30;99.90;;;;;;4989403;28;19932;-77
2024/01/10 05:21:58;;;;;;;;;;;-5.30;99.90;;;;;;5016544;28;19929;-77
2024/01/10 05:24:24;;;;;;;;;;;-5.30;99.90;;;;;;4958523;28;19932;-77
2024/01/10 05:26:51;;;;;;;;;;;-5.30;99.90;;;;;;5000439;28;19936;-77
2024/01/10 05:29:19;;;;;;;;;;;-5.30;99.90;;;;;;4969906;28;20936;-77
2024/01/10 05:31:46;;;;;;;;;;;-5.30;99.90;;;;;;5001316;28;19925;-77
2024/01/10 05:34:12;;;;;;;;;;;-5.30;99.90;;;;;;4967387;28;19929;-76
2024/01/10 05:36:38;;;;;;;;;;;-5.30;99.90;;;;;;4996778;28;19936;-75
2024/01/10 05:39:04;;;;;;;;;;;-5.30;99.90;;;;;;4943547;28;19931;-75
2024/01/10 05:41:30;;;;;;;;;;;-5.30;99.90;;;;;;4998075;28;20437;-75
2024/01/10 05:43:56;;;;;;;;;;;-5.30;99.90;;;;;;4975390;28;19924;-76
2024/01/10 05:46:22;;;;;;;;;;;-5.30;99.90;;;;;;4982429;28;20085;-76
2024/01/10 05:48:48;;;;;;;;;;;-5.30;99.90;;;;;;4990419;28;20216;-75
2024/01/10 05:51:14;;;;;;;;;;;-5.30;99.90;;;;;;4991256;28;19920;-76
2024/01/10 05:53:40;;;;;;;;;;;-5.30;99.90;;;;;;4953803;28;19929;-77
2024/01/10 05:56:07;;;;;;;;;;;-5.30;99.90;;;;;;4990152;28;20264;-77
2024/01/10 05:58:32;;;;;;;;;;;-5.30;99.90;;;;;;4983437;28;19925;-76
2024/01/10 06:00:58;;;;;;;;;;;-5.30;99.90;;;;;;5016779;28;20380;-77
2024/01/10 06:03:24;;;;;;;;;;;-5.30;99.90;;;;;;5004584;28;19940;-76
2024/01/10 06:05:50;;;;;;;;;;;-5.30;99.90;;;;;;4967400;28;19928;-78
2024/01/10 06:08:16;;;;;;;;;;;-5.30;99.90;;;;;;4970817;28;19965;-77
2024/01/10 06:10:42;;;;;;;;;;;-5.30;99.90;;;;;;4983484;28;20911;-77
2024/01/10 06:13:08;;;;;;;;;;;-5.30;99.90;;;;;;5004262;28;19929;-76
2024/01/10 06:15:34;;;;;;;;;;;-5.30;99.90;;;;;;4983690;28;19924;-77
2024/01/10 06:18:00;;;;;;;;;;;-5.30;99.90;;;;;;4988266;28;20239;-76
2024/01/10 06:20:26;;;;;;;;;;;-5.30;99.90;;;;;;4953474;28;20417;-77
2024/01/10 06:22:52;;;;;;;;;;;-5.30;99.90;;;;;;4987099;28;19955;-77
2024/01/10 06:25:18;;;;;;;;;;;-5.30;99.90;;;;;;4987124;28;20027;-77
2024/01/10 06:27:44;;;;;;;;;;;-5.30;99.90;;;;;;4963138;28;19995;-77
2024/01/10 06:30:10;;;;;;;;;;;-5.30;99.90;;;;;;4976298;28;20427;-77
2024/01/10 06:32:36;;;;;;;;;;;-5.30;99.90;;;;;;5018401;28;19924;-75
2024/01/10 06:35:02;;;;;;;;;;;-5.30;99.90;;;;;;4975253;28;19925;-75
2024/01/10 06:37:28;;;;;;;;;;;-5.20;99.90;;;;;;5013221;28;20019;-74
2024/01/10 06:39:54;;;;;;;;;;;-5.30;99.90;;;;;;4962326;28;19925;-74
2024/01/10 06:42:20;;;;;;;;;;;-5.30;99.90;;;;;;4986701;28;19929;-74
2024/01/10 06:44:46;;;;;;;;;;;-5.20;99.90;;;;;;4979211;28;19933;-74
2024/01/10 06:47:12;;;;;;;;;;;-5.20;99.90;;;;;;4995310;28;19925;-75
2024/01/10 06:49:38;;;;;;;;;;;-5.20;99.90;;;;;;4972721;28;20585;-76
2024/01/10 06:52:06;;;;;;;;;;;-5.20;99.90;;;;;;4980852;28;20012;-74
2024/01/10 06:54:32;;;;;;;;;;;-5.20;99.90;;;;;;4969247;28;20426;-76
2024/01/10 06:56:58;;;;;;;;;;;-5.20;99.90;;;;;;5015899;28;20521;-75
2024/01/10 06:59:24;;;;;;;;;;;-5.20;99.90;;;;;;4965907;28;19932;-74
2024/01/10 07:01:55;;;;;;;;;;;-5.20;99.90;;;;;;4976947;28;19928;-75
2024/01/10 07:04:23;;;;;;;;;;;-5.20;99.90;;;;;;4936533;28;19925;-75
2024/01/10 07:06:52;;;;;;;;;;;-5.20;99.90;;;;;;4990698;28;19925;-75
2024/01/10 07:09:19;;;;;;;;;;;-5.20;99.90;;;;;;4966821;28;19931;-74
2024/01/10 07:11:47;;;;;;;;;;;-5.30;99.90;;;;;;4986176;28;19925;-74
2024/01/10 07:14:14;;;;;;;;;;;-5.30;99.90;;;;;;4963191;28;20178;-75
2024/01/10 07:16:42;;;;;;;;;;;-5.30;99.90;;;;;;4995230;28;19924;-75
2024/01/10 07:19:09;;;;;;;;;;;-5.20;99.90;;;;;;4960589;28;19929;-74
2024/01/10 07:21:35;;;;;;;;;;;-5.20;99.90;;;;;;4992216;28;19924;-75
2024/01/10 07:24:00;;;;;;;;;;;-5.20;99.90;;;;;;4955815;28;20565;-75
2024/01/10 07:26:27;;;;;;;;;;;-5.30;99.90;;;;;;5005353;28;19932;-73
2024/01/10 07:28:53;;;;;;;;;;;-5.20;99.90;;;;;;4956000;28;19924;-74
2024/01/10 07:31:19;;;;;;;;;;;-5.20;99.90;;;;;;4998059;28;20431;-75
2024/01/10 07:33:45;;;;;;;;;;;-5.20;99.90;;;;;;4975138;28;19929;-75
2024/01/10 07:36:11;;;;;;;;;;;-5.20;99.90;;;;;;5013528;28;20395;-75
2024/01/10 07:38:36;;;;;;;;;;;-5.20;99.90;;;;;;4975532;28;19924;-75
2024/01/10 07:41:02;;;;;;;;;;;-5.20;99.90;;;;;;4997959;28;19929;-75
2024/01/10 07:43:28;;;;;;;;;;;-5.20;99.90;;;;;;4976282;28;20521;-75
2024/01/10 07:45:55;;;;;;;;;;;-5.20;99.90;;;;;;4973475;28;20420;-74
2024/01/10 07:48:21;;;;;;;;;;;-5.20;99.90;;;;;;4987659;28;19935;-75
2024/01/10 07:50:47;;;;;;;;;;;-5.10;99.90;;;;;;4954881;28;19968;-75
2024/01/10 07:53:13;;;;;;;;;;;-5.10;99.90;;;;;;5005260;28;19928;-75
2024/01/10 07:55:39;;;;;;;;;;;-5.10;99.90;;;;;;4973533;28;20118;-76
2024/01/10 07:58:05;;;;;;;;;;;-5.10;99.90;;;;;;5002496;28;19950;-76
2024/01/10 08:00:31;;;;;;;;;;;-5.10;99.90;;;;;;4972087;28;19929;-75
2024/01/10 08:02:58;;;;;;;;;;;-5.10;99.90;;;;;;4986374;28;19936;-75
2024/01/10 08:05:24;;;;;;;;;;;-5.10;99.90;;;;;;4958277;28;19925;-71
2024/01/10 08:07:49;;;;;;;;;;;-5.00;99.90;;;;;;4982190;28;19924;-75
2024/01/10 08:10:15;;;;;;;;;;;-5.00;99.90;;;;;;4940330;28;19929;-74
2024/01/10 08:12:41;;;;;;;;;;;-5.00;99.90;;;;;;4986723;28;19963;-73
2024/01/10 08:15:07;;;;;;;;;;;-5.00;99.90;;;;;;4986782;28;19929;-75
2024/01/10 08:17:34;;;;;;;;;;;-4.90;99.90;;;;;;5019060;28;19925;-74
2024/01/10 08:20:00;;;;;;;;;;;-4.90;99.90;;;;;;4966597;28;19924;-73
2024/01/10 08:22:26;;;;;;;;;;;-4.90;99.90;;;;;;4988259;28;20901;-73
2024/01/10 08:24:52;;;;;;;;;;;-4.90;99.90;;;;;;4973128;28;19925;-74
2024/01/10 08:27:18;;;;;;;;;;;-4.90;99.90;;;;;;4983834;28;19924;-74
2024/01/10 08:29:44;;;;;;;;;;;-4.80;99.90;;;;;;4963558;28;19928;-74
2024/01/10 08:32:10;;;;;;;;;;;-4.80;99.90;;;;;;4982649;28;19925;-74
2024/01/10 08:34:36;;;;;;;;;;;-4.80;99.90;;;;;;4963395;28;20286;-74
2024/01/10 08:37:03;;;;;;;;;;;-4.80;99.90;;;;;;4992546;28;20311;-75
2024/01/10 08:39:30;;;;;;;;;;;-4.70;99.90;;;;;;4970482;28;19940;-75
2024/01/10 08:41:57;;;;;;;;;;;-4.70;99.90;;;;;;5015868;28;20659;-75
2024/01/10 08:44:23;;;;;;;;;;;-4.70;99.90;;;;;;4981466;28;19925;-75
2024/01/10 08:46:50;;;;;;;;;;;-4.70;99.90;;;;;;4970661;28;19925;-75
2024/01/10 08:49:17;;;;;;;;;;;-4.60;99.90;;;;;;4956677;28;19925;-75
2024/01/10 08:51:43;;;;;;;;;;;-4.60;99.90;;;;;;4988911;28;19931;-72
2024/01/10 08:54:09;;;;;;;;;;;-4.60;99.90;;;;;;4968584;28;20429;-74
2024/01/10 08:56:35;;;;;;;;;;;-4.60;99.90;;;;;;4994737;28;19925;-76
2024/01/10 08:59:01;;;;;;;;;;;-4.60;99.90;;;;;;4961854;28;20043;-75
2024/01/10 09:01:27;;;;;;;;;;;-4.50;99.90;;;;;;4995577;28;19924;-74
2024/01/10 09:03:53;;;;;;;;;;;-4.50;99.90;;;;;;4940680;28;19967;-74
2024/01/10 09:06:20;;;;;;;;;;;-4.50;99.90;;;;;;5015735;28;20032;-75
2024/01/10 09:08:46;;;;;;;;;;;-4.50;99.90;;;;;;4990405;28;19937;-75
2024/01/10 09:11:12;;;;;;;;;;;-4.40;99.90;;;;;;4996986;28;19925;-74
2024/01/10 09:13:40;;;;;;;;;;;-4.40;99.90;;;;;;4972805;28;19936;-75
2024/01/10 09:16:06;;;;;;;;;;;-4.40;99.90;;;;;;4998787;28;19932;-75
2024/01/10 09:18:32;;;;;;;;;;;-4.30;99.90;;;;;;4955480;28;19925;-75
2024/01/10 09:20:58;;;;;;;;;;;-4.30;99.90;;;;;;4986046;28;19924;-75
2024/01/10 09:23:24;;;;;;;;;;;-4.20;99.90;;;;;;5020220;28;19925;-74
2024/01/10 09:25:50;;;;;;;;;;;-4.20;99.90;;;;;;4972381;28;20053;-74
2024/01/10 09:28:16;;;;;;;;;;;-4.20;99.90;;;;;;5015790;28;19936;-73
2024/01/10 09:30:42;;;;;;;;;;;-4.10;99.90;;;;;;4970199;28;19944;-72
2024/01/10 09:33:08;;;;;;;;;;;-4.10;99.90;;;;;;4981849;28;19924;-72
2024/01/10 09:35:34;;;;;;;;;;;-4.10;99.90;;;;;;4954197;28;20556;-74
2024/01/10 09:38:00;;;;;;;;;;;-4.00;99.90;;;;;;4986009;28;19924;-73
2024/01/10 09:40:28;;;;;;;;;;;-4.00;99.90;;;;;;4954351;28;20413;-73
2024/01/10 09:42:54;;;;;;;;;;;-3.90;99.90;;;;;;4999721;28;19929;-73
2024/01/10 09:45:21;;;;;;;;;;;-3.90;99.90;;;;;;4984511;28;19924;-72
2024/01/10 09:47:55;;;;;;;;;;;-3.80;99.90;;;;;;5016842;28;19929;-73
2024/01/10 09:50:21;;;;;;;;;;;-3.80;99.90;;;;;;4967044;28;19955;-73
2024/01/10 09:52:51;;;;;;;;;;;-3.70;99.90;;;;;;4981696;28;20422;-74
2024/01/10 09:55:17;;;;;;;;;;;-3.70;99.90;;;;;;4953334;28;19928;-74
2024/01/10 09:57:43;;;;;;;;;;;-3.60;99.90;;;;;;4998646;28;20984;-74
2024/01/10 10:00:10;;;;;;;;;;;-3.60;99.90;;;;;;4952286;28;20024;-74
2024/01/10 10:02:37;;;;;;;;;;;-3.50;99.90;;;;;;4999799;28;19928;-74
2024/01/10 10:05:07;;;;;;;;;;;-3.50;99.90;;;;;;4966771;28;19931;-75
2024/01/10 10:07:49;;;;;;;;;;;-3.50;99.90;;;;;;4980032;28;20942;-74
2024/01/10 10:10:16;;;;;;;;;;;-3.40;99.90;;;;;;4967433;28;20434;-74
2024/01/10 10:12:45;;;;;;;;;;;-3.40;99.90;;;;;;4983620;28;19935;-74
2024/01/10 10:15:13;;;;;;;;;;;-3.30;99.90;;;;;;4966985;28;19933;-73
2024/01/10 10:17:45;;;;;;;;;;;-3.30;99.90;;;;;;4985698;28;20781;-74
2024/01/10 10:20:22;;;;;;;;;;;-3.30;99.90;;;;;;4987662;28;19928;-74
2024/01/10 10:22:59;;;;;;;;;;;-3.30;99.90;;;;;;4982090;28;19925;-74
2024/01/10 10:25:26;;;;;;;;;;;-3.20;99.90;;;;;;4977870;28;19929;-74
2024/01/10 10:27:52;;;;;;;;;;;-3.20;99.90;;;;;;4982047;28;19948;-75
2024/01/10 10:30:18;;;;;;;;;;;-3.20;99.90;;;;;;4979599;28;20446;-74
2024/01/10 10:32:44;;;;;;;;;;;-3.10;99.90;;;;;;4999159;28;21092;-75
2024/01/10 10:35:10;;;;;;;;;;;-3.10;99.90;;;;;;4983900;28;20425;-75
2024/01/10 10:37:36;;;;;;;;;;;-3.10;99.90;;;;;;4984101;28;19931;-75
2024/01/10 10:40:02;;;;;;;;;;;-3.10;99.90;;;;;;4972582;28;20604;-75
2024/01/10 10:42:28;;;;;;;;;;;-3.00;99.90;;;;;;4999061;28;19924;-75
2024/01/10 10:44:57;;;;;;;;;;;-3.00;99.90;;;;;;4981001;28;20809;-76
2024/01/10 10:47:26;;;;;;;;;;;-3.00;99.90;;;;;;4997346;28;19925;-75
2024/01/10 10:49:54;;;;;;;;;;;-3.00;99.90;;;;;;4972871;28;20437;-75
2024/01/10 10:52:21;;;;;;;;;;;-2.90;99.90;;;;;;4979983;28;19939;-76
2024/01/10 10:54:47;;;;;;;;;;;-2.80;99.90;;;;;;4984393;28;19932;-75
2024/01/10 10:57:14;;;;;;;;;;;-2.80;99.90;;;;;;4989324;28;19924;-76
2024/01/10 10:59:41;;;;;;;;;;;-2.80;99.90;;;;;;4964155;28;19928;-76
2024/01/10 11:02:09;;;;;;;;;;;-2.70;99.90;;;;;;5007159;28;19929;-75
2024/01/10 11:04:35;;;;;;;;;;;-2.70;99.90;;;;;;4975080;28;21196;-77
2024/01/10 11:07:01;;;;;;;;;;;-2.70;99.90;;;;;;4981103;28;19929;-75
2024/01/10 11:09:27;;;;;;;;;;;-2.60;99.90;;;;;;4979805;28;19924;-75
2024/01/10 11:12:19;;;;;;;;;;;-2.60;99.90;;;;;;5011095;28;21220;-75
2024/01/10 11:14:51;;;;;;;;;;;-2.60;99.90;;;;;;4971050;28;19945;-75
2024/01/10 11:17:30;;;;;;;;;;;-2.50;99.90;;;;;;4988962;28;20783;-75
2024/01/10 11:20:15;;;;;;;;;;;-2.50;99.90;;;;;;4991791;28;19939;-75
2024/01/10 11:23:05;;;;;;;;;;;-2.50;99.90;;;;;;4990898;28;19924;-75
2024/01/10 11:25:32;;;;;;;;;;;-2.40;99.90;;;;;;4980439;28;20363;-75
2024/01/10 11:28:03;;;;;;;;;;;-2.40;99.90;;;;;;5005666;28;19925;-74
2024/01/10 11:30:35;;;;;;;;;;;-2.30;99.90;;;;;;4979054;28;20560;-74
2024/01/10 11:33:02;;;;;;;;;;;-2.30;99.90;;;;;;5009668;28;20740;-76
2024/01/10 11:35:31;;;;;;;;;;;-2.30;99.90;;;;;;4988130;28;20004;-74
2024/01/10 11:37:59;;;;;;;;;;;-2.20;99.90;;;;;;5006517;28;19936;-75
2024/01/10 11:40:44;;;;;;;;;;;-2.20;99.90;;;;;;4986967;28;19931;-75
2024/01/10 11:43:12;;;;;;;;;;;-2.10;99.90;;;;;;5022617;28;19932;-74
2024/01/10 11:45:49;;;;;;;;;;;-2.10;99.90;;;;;;4976956;28;19935;-75
2024/01/10 11:48:16;;;;;;;;;;;-2.00;99.90;;;;;;5006216;28;20628;-74
2024/01/10 11:50:42;;;;;;;;;;;-2.00;99.90;;;;;;4988724;28;19959;-75
2024/01/10 11:53:08;;;;;;;;;;;-2.00;99.90;;;;;;5001858;28;21529;-74
2024/01/10 11:55:48;;;;;;;;;;;-1.90;99.90;;;;;;4986704;28;20449;-74
2024/01/10 11:58:14;;;;;;;;;;;-1.90;99.90;;;;;;5022355;28;19924;-74
2024/01/10 12:00:40;;;;;;;;;;;-1.90;99.90;;;;;;4988776;28;20648;-73
2024/01/10 12:03:07;;;;;;;;;;;-1.80;99.90;;;;;;4988139;28;19925;-73
2024/01/10 12:05:36;;;;;;;;;;;-1.80;99.90;;;;;;4973876;28;20013;-72
2024/01/10 12:08:06;;;;;;;;;;;-1.80;99.90;;;;;;5002657;28;19929;-72
2024/01/10 12:10:36;;;;;;;;;;;-1.70;99.90;;;;;;4971535;28;19929;-72
2024/01/10 12:13:03;;;;;;;;;;;-1.70;99.90;;;;;;5019313;28;19929;-73
2024/01/10 12:15:29;;;;;;;;;;;-1.70;99.90;;;;;;4973706;28;20403;-70
2024/01/10 12:17:55;;;;;;;;;;;-1.70;99.90;;;;;;4989352;28;20438;-73
2024/01/10 12:20:21;;;;;;;;;;;-1.60;99.90;;;;;;4983542;28;19928;-73
2024/01/10 12:22:47;;;;;;;;;;;-1.60;99.90;;;;;;5004015;28;19932;-73
2024/01/10 12:25:14;;;;;;;;;;;-1.00;99.90;;;;;;4970414;28;19925;-73
2024/01/10 12:27:40;;;;;;;;;;;1.00;99.90;;;;;;4993146;28;19933;-74
2024/01/10 12:30:07;;;;;;;;;;;2.30;99.90;;;;;;4985241;28;20942;-74
2024/01/10 12:32:33;;;;;;;;;;;3.40;99.70;;;;;;4984429;28;19925;-74
2024/01/10 12:35:02;;;;;;;;;;;4.20;97.70;;;;;;4983647;28;20235;-74
2024/01/10 12:37:28;;;;;;;;;;;4.50;96.60;;;;;;5002653;28;19925;-74
2024/01/10 12:39:54;;;;;;;;;;;5.10;96.20;;;;;;4981651;28;19925;-73
2024/01/10 12:42:20;;;;;;;;;;;5.50;95.40;;;;;;4992042;28;19932;-74
2024/01/10 12:44:47;;;;;;;;;;;6.00;95.00;;;;;;4965122;28;19930;-74
2024/01/10 12:47:20;;;;;;;;;;;6.40;94.50;;;;;;5005687;28;19925;-75
2024/01/10 12:49:46;;;;;;;;;;;6.50;94.00;;;;;;4952099;28;20700;-75
2024/01/10 12:52:13;;;;;;;;;;;6.70;93.60;;;;;;4987877;28;21152;-75
2024/01/10 12:54:39;;;;;;;;;;;7.20;94.40;;;;;;4975757;28;19948;-75
2024/01/10 12:57:06;;;;;;;;;;;7.30;92.80;;;;;;5013095;28;20509;-75
2024/01/10 12:59:32;;;;;;;;;;;7.70;92.30;;;;;;4957914;28;19929;-75
2024/01/10 13:01:59;;;;;;;;;;;7.80;92.90;;;;;;4985337;28;19929;-74
2024/01/10 13:04:25;;;;;;;;;;;8.10;92.70;;;;;;4982072;28;19925;-75
2024/01/10 13:06:50;;;;;;;;;;;7.50;91.20;;;;;;4974059;28;19952;-76
2024/01/10 13:09:16;;;;;;;;;;;7.40;91.50;;;;;;4951716;28;19938;-76
2024/01/10 13:11:42;;;;;;;;;;;7.60;91.30;;;;;;5007159;28;19935;-75
2024/01/10 13:14:09;;;;;;;;;;;8.00;91.60;;;;;;4964576;28;19925;-75
2024/01/10 13:16:35;;;;;;;;;;;8.30;92.10;;;;;;4995275;28;19924;-75
2024/01/10 13:19:01;;;;;;;;;;;8.30;91.30;;;;;;4977159;28;19930;-74
2024/01/10 13:21:27;;;;;;;;;;;8.30;90.60;;;;;;4996168;28;19932;-74
2024/01/10 13:23:53;;;;;;;;;;;8.50;90.60;;;;;;4984656;28;19932;-74
2024/01/10 13:26:19;;;;;;;;;;;9.00;91.30;;;;;;5003689;28;20486;-74
2024/01/10 13:28:44;;;;;;;;;;;8.60;90.20;;;;;;4991805;28;19925;-74
2024/01/10 13:31:10;;;;;;;;;;;8.20;89.50;;;;;;5003510;28;20802;-74
2024/01/10 13:33:37;;;;;;;;;;;8.30;90.80;;;;;;4962205;28;20372;-74
2024/01/10 13:36:06;;;;;;;;;;;8.20;90.10;;;;;;5014814;28;19954;-74
2024/01/10 13:38:32;;;;;;;;;;;8.10;89.10;;;;;;4991969;28;19929;-74
2024/01/10 13:40:58;;;;;;;;;;;8.30;89.70;;;;;;5010520;28;19928;-74
2024/01/10 13:43:24;;;;;;;;;;;8.10;88.80;;;;;;4985410;28;19931;-73
2024/01/10 13:45:50;;;;;;;;;;;8.50;90.10;;;;;;4986494;28;19928;-74
2024/01/10 13:48:16;;;;;;;;;;;8.70;89.50;;;;;;4983273;28;20016;-74
2024/01/10 13:50:42;;;;;;;;;;;9.00;89.70;;;;;;4969657;28;19979;-74
2024/01/10 13:53:08;;;;;;;;;;;9.60;90.50;;;;;;5000905;28;20039;-74
2024/01/10 13:55:35;;;;;;;;;;;9.60;87.40;;;;;;4973064;28;19929;-74
2024/01/10 13:58:01;;;;;;;;;;;9.50;88.60;;;;;;4973531;28;19924;-75
2024/01/10 14:00:27;;;;;;;;;;;9.30;87.40;;;;;;4971439;28;20564;-74
2024/01/10 14:02:58;;;;;;;;;;;9.00;86.90;;;;;;5000052;28;19943;-75
2024/01/10 14:05:25;;;;;;;;;;;8.80;87.90;;;;;;4970733;28;19929;-75
2024/01/10 14:07:51;;;;;;;;;;;8.40;88.30;;;;;;4981597;28;19924;-75
2024/01/10 14:10:17;;;;;;;;;;;8.70;88.40;;;;;;4980950;28;19944;-74
2024/01/10 14:12:42;;;;;;;;;;;8.70;88.80;;;;;;4963758;28;20628;-75
2024/01/10 14:15:09;;;;;;;;;;;9.00;88.50;;;;;;4966097;28;19928;-74